sensor_id;sensor_type;location;lat;lon;timestamp;pressure;altitude;pressure_sealevel;temperature;humidity
43814;BME280;29669;55.706;37.656;2023-08-06T02:40:19;100270.69;;;24.20;56.05
43814;BME280;29669;55.706;37.656;2023-08-06T03:14:48;100269.56;;;24.66;54.93
43814;BME280;29669;55.706;37.656;2023-08-06T03:17:17;100272.53;;;24.70;54.67
43814;BME280;29669;55.706;37.656;2023-08-06T03:29:34;100276.47;;;25.00;54.38
43814;BME280;29669;55.706;37.656;2023-08-06T03:32:58;100269.63;;;25.04;54.34
43814;BME280;29669;55.706;37.656;2023-08-06T03:35:39;100275.56;;;25.11;54.06
43814;BME280;29669;55.706;37.656;2023-08-06T03:38:32;100272.97;;;25.16;54.00
43814;BME280;29669;55.706;37.656;2023-08-06T03:41:04;100274.31;;;25.19;53.95
43814;BME280;29669;55.706;37.656;2023-08-06T03:43:34;100279.47;;;25.26;53.85
43814;BME280;29669;55.706;37.656;2023-08-06T03:46:05;100274.47;;;25.29;53.92
43814;BME280;29669;55.706;37.656;2023-08-06T03:48:34;100276.16;;;25.35;53.94
43814;BME280;29669;55.706;37.656;2023-08-06T03:51:05;100269.88;;;25.41;53.86
43814;BME280;29669;55.706;37.656;2023-08-06T03:53:33;100272.03;;;25.44;53.83
43814;BME280;29669;55.706;37.656;2023-08-06T03:56:02;100273.44;;;25.52;53.87
43814;BME280;29669;55.706;37.656;2023-08-06T03:58:31;100262.34;;;25.55;53.62
43814;BME280;29669;55.706;37.656;2023-08-06T04:01:00;100269.56;;;25.59;53.54
43814;BME280;29669;55.706;37.656;2023-08-06T04:03:50;100272.34;;;25.69;53.32
43814;BME280;29669;55.706;37.656;2023-08-06T04:06:25;100267.06;;;25.74;53.02
43814;BME280;29669;55.706;37.656;2023-08-06T04:08:53;100264.47;;;25.79;53.02
43814;BME280;29669;55.706;37.656;2023-08-06T04:11:24;100271.50;;;25.90;52.88
43814;BME280;29669;55.706;37.656;2023-08-06T04:13:53;100268.88;;;25.95;52.69
43814;BME280;29669;55.706;37.656;2023-08-06T04:16:25;100268.38;;;25.98;52.45
43814;BME280;29669;55.706;37.656;2023-08-06T04:18:58;100262.28;;;25.98;52.51
43814;BME280;29669;55.706;37.656;2023-08-06T04:21:28;100259.91;;;26.01;52.42
43814;BME280;29669;55.706;37.656;2023-08-06T04:23:56;100260.78;;;26.07;52.04
43814;BME280;29669;55.706;37.656;2023-08-06T04:26:24;100266.69;;;26.14;52.13
43814;BME280;29669;55.706;37.656;2023-08-06T04:28:52;100260.63;;;26.19;51.79
43814;BME280;29669;55.706;37.656;2023-08-06T04:31:57;100260.94;;;26.22;51.88
43814;BME280;29669;55.706;37.656;2023-08-06T04:34:57;100257.56;;;26.32;51.39
43814;BME280;29669;55.706;37.656;2023-08-06T04:37:41;100252.81;;;26.39;51.72
43814;BME280;29669;55.706;37.656;2023-08-06T04:40:32;100255.81;;;26.47;51.13
43814;BME280;29669;55.706;37.656;2023-08-06T04:44:27;100264.97;;;26.61;51.04
43814;BME280;29669;55.706;37.656;2023-08-06T04:55:58;100268.41;;;26.88;50.38
43814;BME280;29669;55.706;37.656;2023-08-06T04:58:47;100257.75;;;26.93;50.31
43814;BME280;29669;55.706;37.656;2023-08-06T05:01:33;100257.00;;;26.98;50.08
43814;BME280;29669;55.706;37.656;2023-08-06T05:04:28;100259.19;;;27.06;50.08
43814;BME280;29669;55.706;37.656;2023-08-06T13:18:18;99991.59;;;46.06;20.41
43814;BME280;29669;55.706;37.656;2023-08-06T13:24:17;99985.63;;;46.49;20.08
43814;BME280;29669;55.706;37.656;2023-08-06T13:26:45;99983.09;;;46.87;19.67
43814;BME280;29669;55.706;37.656;2023-08-06T13:34:43;99975.28;;;46.82;19.43
43814;BME280;29669;55.706;37.656;2023-08-06T13:56:41;99966.69;;;48.23;18.79
43814;BME280;29669;55.706;37.656;2023-08-06T13:59:09;99964.94;;;48.43;18.02
43814;BME280;29669;55.706;37.656;2023-08-06T14:01:41;99966.75;;;48.53;17.91
43814;BME280;29669;55.706;37.656;2023-08-06T14:04:17;99963.63;;;48.17;17.97
43814;BME280;29669;55.706;37.656;2023-08-06T14:07:01;99958.72;;;47.95;18.27
43814;BME280;29669;55.706;37.656;2023-08-06T14:09:43;99967.72;;;47.99;17.65
43814;BME280;29669;55.706;37.656;2023-08-06T14:26:43;99951.34;;;47.44;18.39
43814;BME280;29669;55.706;37.656;2023-08-06T14:29:13;99947.22;;;47.63;17.94
43814;BME280;29669;55.706;37.656;2023-08-06T14:51:13;99946.72;;;49.10;16.77
43814;BME280;29669;55.706;37.656;2023-08-06T14:53:42;99936.75;;;49.16;16.23
43814;BME280;29669;55.706;37.656;2023-08-06T15:00:30;99937.66;;;48.52;17.01
43814;BME280;29669;55.706;37.656;2023-08-06T15:02:57;99938.59;;;48.39;17.25
43814;BME280;29669;55.706;37.656;2023-08-06T15:05:24;99939.78;;;48.38;16.51
43814;BME280;29669;55.706;37.656;2023-08-06T15:07:51;99946.16;;;48.31;16.87
43814;BME280;29669;55.706;37.656;2023-08-06T15:30:51;99942.41;;;48.48;16.49
43814;BME280;29669;55.706;37.656;2023-08-06T15:34:16;99934.03;;;48.59;16.36
43814;BME280;29669;55.706;37.656;2023-08-06T15:41:43;99939.22;;;47.34;17.29
43814;BME280;29669;55.706;37.656;2023-08-06T15:44:56;99939.69;;;47.26;17.35
43814;BME280;29669;55.706;37.656;2023-08-06T15:47:46;99935.19;;;46.91;17.29
43814;BME280;29669;55.706;37.656;2023-08-06T16:00:18;99930.03;;;46.14;18.42
43814;BME280;29669;55.706;37.656;2023-08-06T16:03:05;99932.03;;;45.78;18.36
43814;BME280;29669;55.706;37.656;2023-08-06T16:33:52;99927.09;;;38.65;25.27
43814;BME280;29669;55.706;37.656;2023-08-06T16:36:22;99931.69;;;37.52;26.49
43814;BME280;29669;55.706;37.656;2023-08-06T16:39:39;99939.78;;;36.25;28.29
43814;BME280;29669;55.706;37.656;2023-08-06T16:43:23;99942.28;;;35.26;29.67
43814;BME280;29669;55.706;37.656;2023-08-06T16:47:27;99931.31;;;34.45;30.70
43814;BME280;29669;55.706;37.656;2023-08-06T19:52:45;99933.25;;;27.66;46.98
43814;BME280;29669;55.706;37.656;2023-08-06T19:55:17;99929.00;;;27.65;47.12
43814;BME280;29669;55.706;37.656;2023-08-06T19:57:47;99926.03;;;27.61;47.17
43814;BME280;29669;55.706;37.656;2023-08-06T20:00:15;99928.72;;;27.66;47.27
